sensor_id;sensor_type;location;lat;lon;timestamp;P1;durP1;ratioP1;P2;durP2;ratioP2
36725;SDS011;44936;52.086;5.150;2023-05-07T00:00:18;6.45;;;3.35;;
36725;SDS011;44936;52.086;5.150;2023-05-07T00:02:44;9.48;;;3.80;;
36725;SDS011;44936;52.086;5.150;2023-05-07T00:05:10;10.30;;;4.30;;
36725;SDS011;44936;52.086;5.150;2023-05-07T00:07:36;10.18;;;4.03;;
36725;SDS011;44936;52.086;5.150;2023-05-07T00:10:01;9.13;;;4.32;;
36725;SDS011;44936;52.086;5.150;2023-05-07T00:12:27;9.25;;;3.88;;
36725;SDS011;44936;52.086;5.150;2023-05-07T00:14:55;8.45;;;3.90;;
36725;SDS011;44936;52.086;5.150;2023-05-07T00:17:20;9.77;;;4.57;;
36725;SDS011;44936;52.086;5.150;2023-05-07T00:19:45;8.48;;;4.15;;
36725;SDS011;44936;52.086;5.150;2023-05-07T00:22:11;9.60;;;4.45;;
36725;SDS011;44936;52.086;5.150;2023-05-07T00:24:37;12.55;;;4.32;;
36725;SDS011;44936;52.086;5.150;2023-05-07T00:27:02;9.10;;;4.65;;
36725;SDS011;44936;52.086;5.150;2023-05-07T00:29:29;9.38;;;4.20;;
36725;SDS011;44936;52.086;5.150;2023-05-07T00:31:54;7.20;;;3.38;;
36725;SDS011;44936;52.086;5.150;2023-05-07T00:34:19;7.55;;;3.67;;
36725;SDS011;44936;52.086;5.150;2023-05-07T00:36:45;8.13;;;3.83;;
36725;SDS011;44936;52.086;5.150;2023-05-07T00:39:10;6.68;;;3.67;;
36725;SDS011;44936;52.086;5.150;2023-05-07T00:41:36;7.18;;;3.65;;
36725;SDS011;44936;52.086;5.150;2023-05-07T00:44:01;6.25;;;3.30;;
36725;SDS011;44936;52.086;5.150;2023-05-07T00:46:27;6.85;;;3.38;;
36725;SDS011;44936;52.086;5.150;2023-05-07T00:48:53;5.30;;;3.28;;
36725;SDS011;44936;52.086;5.150;2023-05-07T00:51:19;5.32;;;3.30;;
36725;SDS011;44936;52.086;5.150;2023-05-07T00:53:45;7.68;;;3.38;;
36725;SDS011;44936;52.086;5.150;2023-05-07T00:56:11;9.68;;;4.13;;
36725;SDS011;44936;52.086;5.150;2023-05-07T00:58:37;5.82;;;2.83;;
36725;SDS011;44936;52.086;5.150;2023-05-07T01:01:03;8.18;;;3.45;;
36725;SDS011;44936;52.086;5.150;2023-05-07T01:03:28;6.80;;;3.40;;
36725;SDS011;44936;52.086;5.150;2023-05-07T01:05:54;4.57;;;2.47;;
36725;SDS011;44936;52.086;5.150;2023-05-07T01:08:22;6.78;;;2.95;;
36725;SDS011;44936;52.086;5.150;2023-05-07T01:10:49;6.43;;;2.90;;
36725;SDS011;44936;52.086;5.150;2023-05-07T01:13:16;5.50;;;2.83;;
36725;SDS011;44936;52.086;5.150;2023-05-07T01:15:43;6.50;;;3.25;;
36725;SDS011;44936;52.086;5.150;2023-05-07T01:18:08;5.22;;;2.75;;
36725;SDS011;44936;52.086;5.150;2023-05-07T01:20:37;4.35;;;2.78;;
36725;SDS011;44936;52.086;5.150;2023-05-07T01:23:02;5.00;;;2.70;;
36725;SDS011;44936;52.086;5.150;2023-05-07T01:25:33;3.90;;;2.50;;
36725;SDS011;44936;52.086;5.150;2023-05-07T01:28:08;7.47;;;2.70;;
36725;SDS011;44936;52.086;5.150;2023-05-07T01:30:33;5.93;;;2.90;;
36725;SDS011;44936;52.086;5.150;2023-05-07T01:33:04;5.38;;;2.90;;
36725;SDS011;44936;52.086;5.150;2023-05-07T01:35:43;4.82;;;2.58;;
36725;SDS011;44936;52.086;5.150;2023-05-07T01:38:12;5.13;;;2.75;;
36725;SDS011;44936;52.086;5.150;2023-05-07T01:40:38;3.63;;;2.47;;
36725;SDS011;44936;52.086;5.150;2023-05-07T01:43:03;5.97;;;2.78;;
36725;SDS011;44936;52.086;5.150;2023-05-07T01:45:30;5.50;;;2.58;;
36725;SDS011;44936;52.086;5.150;2023-05-07T01:47:56;4.97;;;2.72;;
36725;SDS011;44936;52.086;5.150;2023-05-07T01:50:23;7.07;;;3.00;;
36725;SDS011;44936;52.086;5.150;2023-05-07T01:52:49;5.82;;;2.53;;
36725;SDS011;44936;52.086;5.150;2023-05-07T01:55:15;4.22;;;2.38;;
36725;SDS011;44936;52.086;5.150;2023-05-07T01:57:41;5.88;;;2.55;;
36725;SDS011;44936;52.086;5.150;2023-05-07T02:00:06;6.05;;;2.67;;
36725;SDS011;44936;52.086;5.150;2023-05-07T02:02:33;6.32;;;2.90;;
36725;SDS011;44936;52.086;5.150;2023-05-07T02:04:59;5.18;;;2.78;;
36725;SDS011;44936;52.086;5.150;2023-05-07T02:07:25;4.70;;;2.60;;
36725;SDS011;44936;52.086;5.150;2023-05-07T02:09:50;3.83;;;2.75;;
36725;SDS011;44936;52.086;5.150;2023-05-07T02:12:16;5.43;;;2.47;;
36725;SDS011;44936;52.086;5.150;2023-05-07T02:14:41;4.78;;;2.50;;
36725;SDS011;44936;52.086;5.150;2023-05-07T02:17:07;5.13;;;2.58;;
36725;SDS011;44936;52.086;5.150;2023-05-07T02:19:32;4.65;;;2.75;;
36725;SDS011;44936;52.086;5.150;2023-05-07T02:21:58;5.30;;;2.60;;
36725;SDS011;44936;52.086;5.150;2023-05-07T02:24:23;4.25;;;2.17;;
36725;SDS011;44936;52.086;5.150;2023-05-07T02:26:48;5.72;;;2.40;;
36725;SDS011;44936;52.086;5.150;2023-05-07T02:29:14;5.18;;;2.45;;
36725;SDS011;44936;52.086;5.150;2023-05-07T02:31:39;4.75;;;2.85;;
36725;SDS011;44936;52.086;5.150;2023-05-07T02:34:10;5.22;;;2.85;;
36725;SDS011;44936;52.086;5.150;2023-05-07T02:36:36;4.72;;;2.17;;
36725;SDS011;44936;52.086;5.150;2023-05-07T02:39:02;4.40;;;2.55;;
36725;SDS011;44936;52.086;5.150;2023-05-07T02:41:28;4.72;;;2.67;;
36725;SDS011;44936;52.086;5.150;2023-05-07T02:43:53;4.30;;;2.65;;
36725;SDS011;44936;52.086;5.150;2023-05-07T02:46:19;4.57;;;2.80;;
36725;SDS011;44936;52.086;5.150;2023-05-07T02:48:47;5.45;;;2.67;;
36725;SDS011;44936;52.086;5.150;2023-05-07T02:51:12;5.28;;;3.00;;
36725;SDS011;44936;52.086;5.150;2023-05-07T02:53:38;4.97;;;2.80;;
36725;SDS011;44936;52.086;5.150;2023-05-07T02:56:03;4.88;;;2.50;;
36725;SDS011;44936;52.086;5.150;2023-05-07T02:58:29;5.45;;;2.85;;
36725;SDS011;44936;52.086;5.150;2023-05-07T03:00:54;5.20;;;2.80;;
36725;SDS011;44936;52.086;5.150;2023-05-07T03:03:20;3.88;;;2.25;;
36725;SDS011;44936;52.086;5.150;2023-05-07T03:05:45;4.93;;;2.60;;
36725;SDS011;44936;52.086;5.150;2023-05-07T03:08:14;4.95;;;2.60;;
36725;SDS011;44936;52.086;5.150;2023-05-07T03:10:39;5.57;;;2.88;;
36725;SDS011;44936;52.086;5.150;2023-05-07T03:13:08;6.07;;;2.83;;
36725;SDS011;44936;52.086;5.150;2023-05-07T03:15:33;4.97;;;2.47;;
36725;SDS011;44936;52.086;5.150;2023-05-07T03:17:59;4.25;;;2.10;;
36725;SDS011;44936;52.086;5.150;2023-05-07T03:20:24;4.47;;;2.63;;
36725;SDS011;44936;52.086;5.150;2023-05-07T03:22:49;3.05;;;2.20;;
36725;SDS011;44936;52.086;5.150;2023-05-07T03:25:16;4.30;;;2.63;;
36725;SDS011;44936;52.086;5.150;2023-05-07T03:27:42;5.30;;;2.92;;
36725;SDS011;44936;52.086;5.150;2023-05-07T03:30:07;6.47;;;2.78;;
36725;SDS011;44936;52.086;5.150;2023-05-07T03:32:34;4.82;;;2.60;;
36725;SDS011;44936;52.086;5.150;2023-05-07T03:35:00;5.25;;;2.95;;
36725;SDS011;44936;52.086;5.150;2023-05-07T03:37:33;6.50;;;2.72;;
36725;SDS011;44936;52.086;5.150;2023-05-07T03:39:59;7.30;;;3.10;;
36725;SDS011;44936;52.086;5.150;2023-05-07T03:42:24;5.82;;;3.03;;
36725;SDS011;44936;52.086;5.150;2023-05-07T03:44:50;4.70;;;2.75;;
36725;SDS011;44936;52.086;5.150;2023-05-07T03:47:15;7.45;;;2.90;;
36725;SDS011;44936;52.086;5.150;2023-05-07T03:49:43;5.68;;;2.83;;
36725;SDS011;44936;52.086;5.150;2023-05-07T03:52:12;4.90;;;2.67;;
36725;SDS011;44936;52.086;5.150;2023-05-07T03:54:37;5.53;;;2.53;;
36725;SDS011;44936;52.086;5.150;2023-05-07T03:57:07;4.65;;;2.50;;
36725;SDS011;44936;52.086;5.150;2023-05-07T03:59:32;4.57;;;3.05;;
36725;SDS011;44936;52.086;5.150;2023-05-07T04:01:58;4.53;;;2.42;;
36725;SDS011;44936;52.086;5.150;2023-05-07T04:04:23;5.63;;;2.55;;
36725;SDS011;44936;52.086;5.150;2023-05-07T04:06:49;5.25;;;2.85;;
36725;SDS011;44936;52.086;5.150;2023-05-07T04:09:14;5.30;;;2.58;;
36725;SDS011;44936;52.086;5.150;2023-05-07T04:11:41;5.53;;;2.80;;
36725;SDS011;44936;52.086;5.150;2023-05-07T04:14:06;4.95;;;2.55;;
36725;SDS011;44936;52.086;5.150;2023-05-07T04:16:31;4.43;;;2.58;;
36725;SDS011;44936;52.086;5.150;2023-05-07T04:18:57;6.97;;;2.63;;
36725;SDS011;44936;52.086;5.150;2023-05-07T04:21:22;5.85;;;2.72;;
36725;SDS011;44936;52.086;5.150;2023-05-07T04:23:48;4.18;;;2.33;;
36725;SDS011;44936;52.086;5.150;2023-05-07T04:26:13;7.32;;;3.30;;
36725;SDS011;44936;52.086;5.150;2023-05-07T04:28:41;6.75;;;2.97;;
36725;SDS011;44936;52.086;5.150;2023-05-07T04:31:08;4.47;;;2.50;;
36725;SDS011;44936;52.086;5.150;2023-05-07T04:33:35;4.20;;;2.55;;
36725;SDS011;44936;52.086;5.150;2023-05-07T04:36:03;4.95;;;2.72;;
36725;SDS011;44936;52.086;5.150;2023-05-07T04:38:29;3.60;;;2.08;;
36725;SDS011;44936;52.086;5.150;2023-05-07T04:40:56;7.28;;;2.95;;
36725;SDS011;44936;52.086;5.150;2023-05-07T04:43:22;4.22;;;2.33;;
36725;SDS011;44936;52.086;5.150;2023-05-07T04:45:52;6.18;;;3.03;;
36725;SDS011;44936;52.086;5.150;2023-05-07T04:48:17;4.15;;;2.78;;
36725;SDS011;44936;52.086;5.150;2023-05-07T04:50:48;6.18;;;3.13;;
36725;SDS011;44936;52.086;5.150;2023-05-07T04:53:17;7.47;;;2.90;;
36725;SDS011;44936;52.086;5.150;2023-05-07T04:55:57;5.80;;;3.10;;
36725;SDS011;44936;52.086;5.150;2023-05-07T04:58:23;8.02;;;3.40;;
36725;SDS011;44936;52.086;5.150;2023-05-07T05:00:57;7.82;;;3.53;;
36725;SDS011;44936;52.086;5.150;2023-05-07T05:03:23;8.27;;;3.70;;
36725;SDS011;44936;52.086;5.150;2023-05-07T05:05:51;5.53;;;2.90;;
36725;SDS011;44936;52.086;5.150;2023-05-07T05:08:17;8.32;;;3.58;;
36725;SDS011;44936;52.086;5.150;2023-05-07T05:10:43;6.43;;;3.30;;
36725;SDS011;44936;52.086;5.150;2023-05-07T05:13:09;6.93;;;3.60;;
36725;SDS011;44936;52.086;5.150;2023-05-07T05:15:38;6.25;;;3.05;;
36725;SDS011;44936;52.086;5.150;2023-05-07T05:18:03;8.38;;;3.10;;
36725;SDS011;44936;52.086;5.150;2023-05-07T05:20:31;6.00;;;3.10;;
36725;SDS011;44936;52.086;5.150;2023-05-07T05:22:57;8.85;;;3.45;;
36725;SDS011;44936;52.086;5.150;2023-05-07T05:25:22;6.22;;;3.30;;
36725;SDS011;44936;52.086;5.150;2023-05-07T05:27:47;7.85;;;3.78;;
36725;SDS011;44936;52.086;5.150;2023-05-07T05:30:13;6.97;;;3.53;;
36725;SDS011;44936;52.086;5.150;2023-05-07T05:32:38;5.65;;;3.53;;
36725;SDS011;44936;52.086;5.150;2023-05-07T05:35:04;7.05;;;3.25;;
36725;SDS011;44936;52.086;5.150;2023-05-07T05:37:32;7.05;;;3.63;;
36725;SDS011;44936;52.086;5.150;2023-05-07T05:39:57;6.88;;;3.75;;
36725;SDS011;44936;52.086;5.150;2023-05-07T05:42:22;5.60;;;3.28;;
36725;SDS011;44936;52.086;5.150;2023-05-07T05:44:48;6.88;;;2.97;;
36725;SDS011;44936;52.086;5.150;2023-05-07T05:47:13;7.35;;;3.72;;
36725;SDS011;44936;52.086;5.150;2023-05-07T05:49:42;10.07;;;3.83;;
36725;SDS011;44936;52.086;5.150;2023-05-07T05:52:08;6.35;;;3.20;;
36725;SDS011;44936;52.086;5.150;2023-05-07T05:54:35;7.07;;;3.40;;
36725;SDS011;44936;52.086;5.150;2023-05-07T05:57:02;6.00;;;2.90;;
36725;SDS011;44936;52.086;5.150;2023-05-07T05:59:29;7.57;;;3.65;;
36725;SDS011;44936;52.086;5.150;2023-05-07T06:01:54;7.35;;;3.63;;
36725;SDS011;44936;52.086;5.150;2023-05-07T06:04:20;7.72;;;3.78;;
36725;SDS011;44936;52.086;5.150;2023-05-07T06:06:45;8.15;;;3.60;;
36725;SDS011;44936;52.086;5.150;2023-05-07T06:09:10;8.05;;;3.97;;
36725;SDS011;44936;52.086;5.150;2023-05-07T06:11:39;7.18;;;3.60;;
36725;SDS011;44936;52.086;5.150;2023-05-07T06:14:05;11.90;;;4.57;;
36725;SDS011;44936;52.086;5.150;2023-05-07T06:16:31;7.60;;;3.60;;
36725;SDS011;44936;52.086;5.150;2023-05-07T06:18:56;7.40;;;3.47;;
36725;SDS011;44936;52.086;5.150;2023-05-07T06:21:22;7.47;;;3.45;;
36725;SDS011;44936;52.086;5.150;2023-05-07T06:23:47;8.63;;;3.60;;
36725;SDS011;44936;52.086;5.150;2023-05-07T06:26:12;8.50;;;3.50;;
36725;SDS011;44936;52.086;5.150;2023-05-07T06:28:38;8.00;;;4.35;;
36725;SDS011;44936;52.086;5.150;2023-05-07T06:31:13;6.75;;;3.53;;
36725;SDS011;44936;52.086;5.150;2023-05-07T06:33:43;6.70;;;3.40;;
36725;SDS011;44936;52.086;5.150;2023-05-07T06:36:13;5.80;;;3.17;;
36725;SDS011;44936;52.086;5.150;2023-05-07T06:38:38;8.07;;;3.78;;
36725;SDS011;44936;52.086;5.150;2023-05-07T06:41:05;7.28;;;3.40;;
36725;SDS011;44936;52.086;5.150;2023-05-07T06:43:31;8.18;;;3.70;;
36725;SDS011;44936;52.086;5.150;2023-05-07T06:45:56;7.95;;;3.67;;
36725;SDS011;44936;52.086;5.150;2023-05-07T06:48:21;6.60;;;3.22;;
36725;SDS011;44936;52.086;5.150;2023-05-07T06:50:47;5.95;;;2.90;;
36725;SDS011;44936;52.086;5.150;2023-05-07T06:53:12;7.47;;;3.22;;
36725;SDS011;44936;52.086;5.150;2023-05-07T06:55:38;8.90;;;3.63;;
36725;SDS011;44936;52.086;5.150;2023-05-07T06:58:03;7.45;;;3.22;;
36725;SDS011;44936;52.086;5.150;2023-05-07T07:00:29;7.60;;;3.35;;
36725;SDS011;44936;52.086;5.150;2023-05-07T07:02:54;9.13;;;3.55;;
36725;SDS011;44936;52.086;5.150;2023-05-07T07:05:20;7.43;;;3.35;;
36725;SDS011;44936;52.086;5.150;2023-05-07T07:07:45;6.75;;;3.40;;
36725;SDS011;44936;52.086;5.150;2023-05-07T07:10:17;7.85;;;3.22;;
36725;SDS011;44936;52.086;5.150;2023-05-07T07:12:47;7.60;;;3.50;;
36725;SDS011;44936;52.086;5.150;2023-05-07T07:15:13;7.28;;;3.28;;
36725;SDS011;44936;52.086;5.150;2023-05-07T07:17:42;8.20;;;3.08;;
36725;SDS011;44936;52.086;5.150;2023-05-07T07:20:08;6.75;;;3.13;;
36725;SDS011;44936;52.086;5.150;2023-05-07T07:22:33;10.52;;;3.72;;
36725;SDS011;44936;52.086;5.150;2023-05-07T07:24:59;5.55;;;3.13;;
36725;SDS011;44936;52.086;5.150;2023-05-07T07:27:25;7.63;;;3.65;;
36725;SDS011;44936;52.086;5.150;2023-05-07T07:29:53;7.35;;;3.22;;
36725;SDS011;44936;52.086;5.150;2023-05-07T07:32:18;9.60;;;3.65;;
36725;SDS011;44936;52.086;5.150;2023-05-07T07:34:43;8.13;;;3.50;;
36725;SDS011;44936;52.086;5.150;2023-05-07T07:37:09;6.22;;;3.28;;
36725;SDS011;44936;52.086;5.150;2023-05-07T07:39:38;11.57;;;3.70;;
36725;SDS011;44936;52.086;5.150;2023-05-07T07:42:03;8.82;;;3.50;;
36725;SDS011;44936;52.086;5.150;2023-05-07T07:44:29;6.03;;;3.20;;
36725;SDS011;44936;52.086;5.150;2023-05-07T07:46:54;9.55;;;3.50;;
36725;SDS011;44936;52.086;5.150;2023-05-07T07:49:19;8.88;;;3.78;;
36725;SDS011;44936;52.086;5.150;2023-05-07T07:51:45;7.40;;;3.20;;
36725;SDS011;44936;52.086;5.150;2023-05-07T07:54:10;7.57;;;2.80;;
36725;SDS011;44936;52.086;5.150;2023-05-07T07:56:35;6.63;;;3.38;;
36725;SDS011;44936;52.086;5.150;2023-05-07T07:59:01;7.15;;;3.78;;
36725;SDS011;44936;52.086;5.150;2023-05-07T08:01:27;7.78;;;3.20;;
36725;SDS011;44936;52.086;5.150;2023-05-07T08:03:53;7.40;;;4.22;;
36725;SDS011;44936;52.086;5.150;2023-05-07T08:06:19;6.80;;;3.22;;
36725;SDS011;44936;52.086;5.150;2023-05-07T08:08:44;8.48;;;3.70;;
36725;SDS011;44936;52.086;5.150;2023-05-07T08:11:10;8.25;;;2.95;;
36725;SDS011;44936;52.086;5.150;2023-05-07T08:13:36;6.13;;;3.22;;
36725;SDS011;44936;52.086;5.150;2023-05-07T08:16:03;6.10;;;3.03;;
36725;SDS011;44936;52.086;5.150;2023-05-07T08:18:29;8.05;;;3.33;;
36725;SDS011;44936;52.086;5.150;2023-05-07T08:20:54;7.38;;;3.40;;
36725;SDS011;44936;52.086;5.150;2023-05-07T08:23:22;7.43;;;3.13;;
36725;SDS011;44936;52.086;5.150;2023-05-07T08:25:48;6.72;;;3.00;;
36725;SDS011;44936;52.086;5.150;2023-05-07T08:28:14;6.70;;;3.15;;
36725;SDS011;44936;52.086;5.150;2023-05-07T08:30:42;5.60;;;2.80;;
36725;SDS011;44936;52.086;5.150;2023-05-07T08:33:08;8.10;;;3.08;;
36725;SDS011;44936;52.086;5.150;2023-05-07T08:35:34;7.68;;;3.10;;
36725;SDS011;44936;52.086;5.150;2023-05-07T08:37:59;6.28;;;3.28;;
36725;SDS011;44936;52.086;5.150;2023-05-07T08:40:24;6.13;;;2.50;;
36725;SDS011;44936;52.086;5.150;2023-05-07T08:42:51;7.57;;;3.28;;
36725;SDS011;44936;52.086;5.150;2023-05-07T08:45:18;6.38;;;2.90;;
36725;SDS011;44936;52.086;5.150;2023-05-07T08:47:46;6.72;;;3.53;;
36725;SDS011;44936;52.086;5.150;2023-05-07T08:50:16;7.93;;;3.05;;
36725;SDS011;44936;52.086;5.150;2023-05-07T08:52:42;8.05;;;3.45;;
36725;SDS011;44936;52.086;5.150;2023-05-07T08:55:08;6.80;;;3.13;;
36725;SDS011;44936;52.086;5.150;2023-05-07T08:57:37;5.20;;;2.80;;
36725;SDS011;44936;52.086;5.150;2023-05-07T09:00:03;5.95;;;2.72;;
36725;SDS011;44936;52.086;5.150;2023-05-07T09:02:29;6.68;;;3.10;;
36725;SDS011;44936;52.086;5.150;2023-05-07T09:04:54;7.63;;;3.50;;
36725;SDS011;44936;52.086;5.150;2023-05-07T09:07:20;8.48;;;3.72;;
36725;SDS011;44936;52.086;5.150;2023-05-07T09:09:46;6.18;;;3.08;;
36725;SDS011;44936;52.086;5.150;2023-05-07T09:12:11;5.85;;;3.28;;
36725;SDS011;44936;52.086;5.150;2023-05-07T09:14:37;5.95;;;3.20;;
36725;SDS011;44936;52.086;5.150;2023-05-07T09:17:03;7.97;;;3.10;;
36725;SDS011;44936;52.086;5.150;2023-05-07T09:19:29;5.05;;;2.58;;
36725;SDS011;44936;52.086;5.150;2023-05-07T09:22:02;5.03;;;2.58;;
36725;SDS011;44936;52.086;5.150;2023-05-07T09:24:28;5.82;;;2.70;;
36725;SDS011;44936;52.086;5.150;2023-05-07T09:26:58;6.00;;;2.53;;
36725;SDS011;44936;52.086;5.150;2023-05-07T09:29:25;4.75;;;2.83;;
36725;SDS011;44936;52.086;5.150;2023-05-07T09:31:50;5.78;;;2.83;;
36725;SDS011;44936;52.086;5.150;2023-05-07T09:34:16;6.57;;;3.10;;
36725;SDS011;44936;52.086;5.150;2023-05-07T09:36:41;7.00;;;3.30;;
36725;SDS011;44936;52.086;5.150;2023-05-07T09:39:07;6.78;;;2.90;;
36725;SDS011;44936;52.086;5.150;2023-05-07T09:41:32;5.45;;;2.38;;
36725;SDS011;44936;52.086;5.150;2023-05-07T09:43:58;8.23;;;3.22;;
36725;SDS011;44936;52.086;5.150;2023-05-07T09:46:25;7.97;;;3.28;;
36725;SDS011;44936;52.086;5.150;2023-05-07T09:48:56;6.20;;;2.78;;
36725;SDS011;44936;52.086;5.150;2023-05-07T09:51:30;4.90;;;2.53;;
36725;SDS011;44936;52.086;5.150;2023-05-07T09:54:06;6.05;;;2.03;;
36725;SDS011;44936;52.086;5.150;2023-05-07T09:56:31;6.22;;;2.60;;
36725;SDS011;44936;52.086;5.150;2023-05-07T09:59:01;5.85;;;2.80;;
36725;SDS011;44936;52.086;5.150;2023-05-07T10:01:29;3.45;;;2.17;;
36725;SDS011;44936;52.086;5.150;2023-05-07T10:03:56;5.22;;;2.17;;
36725;SDS011;44936;52.086;5.150;2023-05-07T10:06:23;6.07;;;2.30;;
36725;SDS011;44936;52.086;5.150;2023-05-07T10:08:50;3.30;;;1.65;;
36725;SDS011;44936;52.086;5.150;2023-05-07T10:11:16;3.33;;;1.85;;
36725;SDS011;44936;52.086;5.150;2023-05-07T10:13:42;8.25;;;2.20;;
36725;SDS011;44936;52.086;5.150;2023-05-07T10:16:08;4.28;;;2.22;;
36725;SDS011;44936;52.086;5.150;2023-05-07T10:18:34;3.13;;;1.85;;
36725;SDS011;44936;52.086;5.150;2023-05-07T10:23:45;3.90;;;1.73;;
36725;SDS011;44936;52.086;5.150;2023-05-07T10:26:14;3.50;;;1.77;;
36725;SDS011;44936;52.086;5.150;2023-05-07T10:28:42;2.50;;;1.42;;
36725;SDS011;44936;52.086;5.150;2023-05-07T10:31:57;3.25;;;1.55;;
36725;SDS011;44936;52.086;5.150;2023-05-07T10:34:13;4.30;;;1.88;;
36725;SDS011;44936;52.086;5.150;2023-05-07T10:36:41;3.88;;;1.50;;
36725;SDS011;44936;52.086;5.150;2023-05-07T10:39:08;2.88;;;1.52;;
36725;SDS011;44936;52.086;5.150;2023-05-07T10:41:33;3.25;;;1.58;;
36725;SDS011;44936;52.086;5.150;2023-05-07T10:43:59;2.97;;;1.38;;
36725;SDS011;44936;52.086;5.150;2023-05-07T10:46:26;2.55;;;1.50;;
36725;SDS011;44936;52.086;5.150;2023-05-07T10:51:31;3.45;;;1.60;;
36725;SDS011;44936;52.086;5.150;2023-05-07T10:56:42;5.15;;;1.70;;
36725;SDS011;44936;52.086;5.150;2023-05-07T11:01:49;2.80;;;1.40;;
36725;SDS011;44936;52.086;5.150;2023-05-07T11:04:15;1.80;;;1.30;;
36725;SDS011;44936;52.086;5.150;2023-05-07T11:06:43;2.75;;;1.58;;
36725;SDS011;44936;52.086;5.150;2023-05-07T11:17:29;3.97;;;2.03;;
36725;SDS011;44936;52.086;5.150;2023-05-07T11:19:59;3.05;;;1.77;;
36725;SDS011;44936;52.086;5.150;2023-05-07T11:25:05;3.92;;;1.95;;
36725;SDS011;44936;52.086;5.150;2023-05-07T11:27:31;2.88;;;1.70;;
36725;SDS011;44936;52.086;5.150;2023-05-07T11:29:57;4.90;;;2.53;;
36725;SDS011;44936;52.086;5.150;2023-05-07T11:34:53;3.45;;;1.95;;
36725;SDS011;44936;52.086;5.150;2023-05-07T11:37:23;4.20;;;1.90;;
36725;SDS011;44936;52.086;5.150;2023-05-07T11:39:49;3.13;;;2.10;;
36725;SDS011;44936;52.086;5.150;2023-05-07T11:42:30;4.57;;;2.30;;
36725;SDS011;44936;52.086;5.150;2023-05-07T11:44:55;2.35;;;1.70;;
36725;SDS011;44936;52.086;5.150;2023-05-07T11:47:21;4.45;;;2.13;;
36725;SDS011;44936;52.086;5.150;2023-05-07T11:49:50;6.55;;;1.90;;
36725;SDS011;44936;52.086;5.150;2023-05-07T11:52:16;3.67;;;2.10;;
36725;SDS011;44936;52.086;5.150;2023-05-07T11:54:53;3.33;;;1.85;;
36725;SDS011;44936;52.086;5.150;2023-05-07T11:57:22;3.50;;;2.08;;
36725;SDS011;44936;52.086;5.150;2023-05-07T11:59:58;4.40;;;2.20;;
36725;SDS011;44936;52.086;5.150;2023-05-07T12:02:24;3.65;;;2.22;;
36725;SDS011;44936;52.086;5.150;2023-05-07T12:04:50;5.43;;;2.67;;
36725;SDS011;44936;52.086;5.150;2023-05-07T12:07:16;4.65;;;2.53;;
36725;SDS011;44936;52.086;5.150;2023-05-07T12:09:43;4.25;;;2.25;;
36725;SDS011;44936;52.086;5.150;2023-05-07T12:12:09;3.97;;;2.28;;
36725;SDS011;44936;52.086;5.150;2023-05-07T12:14:43;4.70;;;2.65;;
36725;SDS011;44936;52.086;5.150;2023-05-07T12:17:12;5.43;;;2.47;;
36725;SDS011;44936;52.086;5.150;2023-05-07T12:19:39;4.32;;;3.15;;
36725;SDS011;44936;52.086;5.150;2023-05-07T12:22:09;5.93;;;2.85;;
36725;SDS011;44936;52.086;5.150;2023-05-07T12:24:45;8.23;;;3.10;;
36725;SDS011;44936;52.086;5.150;2023-05-07T12:27:11;4.32;;;2.17;;
36725;SDS011;44936;52.086;5.150;2023-05-07T12:29:36;5.97;;;2.20;;
36725;SDS011;44936;52.086;5.150;2023-05-07T12:32:05;3.25;;;2.13;;
36725;SDS011;44936;52.086;5.150;2023-05-07T12:34:31;6.28;;;2.60;;
36725;SDS011;44936;52.086;5.150;2023-05-07T12:36:56;5.20;;;2.35;;
36725;SDS011;44936;52.086;5.150;2023-05-07T12:39:22;4.70;;;2.42;;
36725;SDS011;44936;52.086;5.150;2023-05-07T12:41:54;3.38;;;2.17;;
36725;SDS011;44936;52.086;5.150;2023-05-07T12:44:25;2.33;;;1.77;;
36725;SDS011;44936;52.086;5.150;2023-05-07T12:46:54;3.90;;;2.28;;
36725;SDS011;44936;52.086;5.150;2023-05-07T12:49:19;6.22;;;2.10;;
36725;SDS011;44936;52.086;5.150;2023-05-07T12:51:46;3.47;;;2.10;;
36725;SDS011;44936;52.086;5.150;2023-05-07T12:54:13;2.38;;;1.98;;
36725;SDS011;44936;52.086;5.150;2023-05-07T12:56:39;3.45;;;1.80;;
36725;SDS011;44936;52.086;5.150;2023-05-07T12:59:07;1.73;;;1.50;;
36725;SDS011;44936;52.086;5.150;2023-05-07T13:01:33;3.08;;;1.80;;
36725;SDS011;44936;52.086;5.150;2023-05-07T13:04:05;2.22;;;1.25;;
36725;SDS011;44936;52.086;5.150;2023-05-07T13:06:30;2.60;;;1.63;;
36725;SDS011;44936;52.086;5.150;2023-05-07T13:08:56;3.20;;;1.67;;
36725;SDS011;44936;52.086;5.150;2023-05-07T13:11:21;2.53;;;1.73;;
36725;SDS011;44936;52.086;5.150;2023-05-07T13:13:47;2.30;;;1.67;;
36725;SDS011;44936;52.086;5.150;2023-05-07T13:16:12;4.78;;;2.30;;
36725;SDS011;44936;52.086;5.150;2023-05-07T13:18:38;3.75;;;2.35;;
36725;SDS011;44936;52.086;5.150;2023-05-07T13:21:04;3.10;;;2.05;;
36725;SDS011;44936;52.086;5.150;2023-05-07T13:23:30;3.53;;;2.20;;
36725;SDS011;44936;52.086;5.150;2023-05-07T13:25:56;3.15;;;1.83;;
36725;SDS011;44936;52.086;5.150;2023-05-07T13:28:22;5.57;;;2.28;;
36725;SDS011;44936;52.086;5.150;2023-05-07T13:30:48;5.15;;;2.38;;
36725;SDS011;44936;52.086;5.150;2023-05-07T13:33:16;4.13;;;1.95;;
36725;SDS011;44936;52.086;5.150;2023-05-07T13:35:42;2.60;;;1.75;;
36725;SDS011;44936;52.086;5.150;2023-05-07T13:38:07;2.83;;;1.40;;
36725;SDS011;44936;52.086;5.150;2023-05-07T13:40:33;2.45;;;1.48;;
36725;SDS011;44936;52.086;5.150;2023-05-07T13:42:58;2.13;;;1.20;;
36725;SDS011;44936;52.086;5.150;2023-05-07T13:45:25;3.45;;;1.35;;
36725;SDS011;44936;52.086;5.150;2023-05-07T13:47:51;5.05;;;1.45;;
36725;SDS011;44936;52.086;5.150;2023-05-07T13:50:17;4.63;;;1.38;;
36725;SDS011;44936;52.086;5.150;2023-05-07T13:52:43;1.85;;;1.35;;
36725;SDS011;44936;52.086;5.150;2023-05-07T13:57:41;2.10;;;1.50;;
36725;SDS011;44936;52.086;5.150;2023-05-07T14:00:07;2.67;;;0.95;;
36725;SDS011;44936;52.086;5.150;2023-05-07T14:02:33;3.95;;;1.20;;
36725;SDS011;44936;52.086;5.150;2023-05-07T14:04:58;1.98;;;1.00;;
36725;SDS011;44936;52.086;5.150;2023-05-07T14:07:24;1.77;;;0.98;;
36725;SDS011;44936;52.086;5.150;2023-05-07T14:09:49;4.50;;;1.20;;
36725;SDS011;44936;52.086;5.150;2023-05-07T14:12:17;1.77;;;1.10;;
36725;SDS011;44936;52.086;5.150;2023-05-07T14:14:42;3.38;;;1.00;;
36725;SDS011;44936;52.086;5.150;2023-05-07T14:17:08;1.05;;;0.82;;
36725;SDS011;44936;52.086;5.150;2023-05-07T14:19:34;3.10;;;1.08;;
36725;SDS011;44936;52.086;5.150;2023-05-07T14:21:59;2.97;;;1.15;;
36725;SDS011;44936;52.086;5.150;2023-05-07T14:24:24;2.53;;;1.48;;
36725;SDS011;44936;52.086;5.150;2023-05-07T14:26:50;2.67;;;1.48;;
36725;SDS011;44936;52.086;5.150;2023-05-07T14:29:15;3.05;;;1.65;;
36725;SDS011;44936;52.086;5.150;2023-05-07T14:31:43;2.42;;;1.30;;
36725;SDS011;44936;52.086;5.150;2023-05-07T14:34:13;2.45;;;1.48;;
36725;SDS011;44936;52.086;5.150;2023-05-07T14:36:38;2.13;;;1.13;;
36725;SDS011;44936;52.086;5.150;2023-05-07T14:39:03;3.42;;;1.55;;
36725;SDS011;44936;52.086;5.150;2023-05-07T14:41:29;1.63;;;1.30;;
36725;SDS011;44936;52.086;5.150;2023-05-07T14:43:55;4.13;;;2.38;;
36725;SDS011;44936;52.086;5.150;2023-05-07T14:46:20;4.97;;;1.80;;
36725;SDS011;44936;52.086;5.150;2023-05-07T14:48:45;6.28;;;2.67;;
36725;SDS011;44936;52.086;5.150;2023-05-07T14:51:11;6.28;;;2.45;;
36725;SDS011;44936;52.086;5.150;2023-05-07T14:53:37;6.10;;;2.65;;
36725;SDS011;44936;52.086;5.150;2023-05-07T14:56:03;7.20;;;2.95;;
36725;SDS011;44936;52.086;5.150;2023-05-07T14:58:28;6.35;;;2.38;;
36725;SDS011;44936;52.086;5.150;2023-05-07T15:00:54;5.75;;;2.35;;
36725;SDS011;44936;52.086;5.150;2023-05-07T15:03:19;3.88;;;2.00;;
36725;SDS011;44936;52.086;5.150;2023-05-07T15:05:45;5.50;;;1.92;;
36725;SDS011;44936;52.086;5.150;2023-05-07T15:08:10;3.15;;;1.77;;
36725;SDS011;44936;52.086;5.150;2023-05-07T15:10:36;3.90;;;1.77;;